Time;durP1;ratioP1;P1;durP2;ratioP2;P2;SDS_P1;SDS_P2;PMS_P1;PMS_P2;Temp;Humidity;BMP_temperature;BMP_pressure;BME280_temperature;BME280_humidity;BME280_pressure;Samples;Min_cycle;Max_cycle;Signal;HPM_P1;HPM_P2
2022/07/26 00:01:58;;;;;;;15.98;3.78;;;;;;;;;;5114176;28;20047;-87
2022/07/26 00:04:25;;;;;;;8.65;3.15;;;18.60;99.90;;;;;;5096724;28;20043;-82
2022/07/26 00:06:51;;;;;;;10.80;4.03;;;;;;;;;;5097046;28;20078;-83
2022/07/26 00:09:17;;;;;;;11.43;3.33;;;;;;;;;;5097389;28;20043;-84
2022/07/26 00:11:43;;;;;;;11.32;3.58;;;;;;;;;;5114051;28;20054;-81
2022/07/26 00:14:09;;;;;;;13.48;2.80;;;;;;;;;;5113777;28;20051;-84
2022/07/26 00:16:35;;;;;;;12.40;2.90;;;;;;;;;;5113713;28;20039;-83
2022/07/26 00:19:02;;;;;;;7.30;2.55;;;;;;;;;;5113624;28;20053;-86
2022/07/26 00:21:29;;;;;;;10.13;3.15;;;;;;;;;;5114079;28;20066;-84
2022/07/26 00:23:55;;;;;;;4.35;2.60;;;;;;;;;;5113760;28;20047;-83
2022/07/26 00:26:21;;;;;;;11.73;3.40;;;;;;;;;;5096712;28;20617;-84
2022/07/26 00:28:47;;;;;;;8.48;2.45;;;;;;;;;;5113262;28;20054;-82
2022/07/26 00:31:13;;;;;;;4.53;3.17;;;;;;;;;;5113567;28;20083;-86
2022/07/26 00:33:39;;;;;;;8.82;2.53;;;;;;;;;;5099167;27;20031;-84
2022/07/26 00:36:06;;;;;;;10.45;3.33;;;18.60;99.90;;;;;;5100404;27;20047;-82
2022/07/26 00:38:32;;;;;;;7.47;2.47;;;;;;;;;;5117461;27;20074;-84
2022/07/26 00:40:58;;;;;;;9.32;2.35;;;;;;;;;;5117112;27;20123;-83
2022/07/26 00:43:24;;;;;;;6.18;2.35;;;;;;;;;;5100288;27;20050;-84
2022/07/26 00:45:51;;;;;;;6.25;2.28;;;;;;;;;;5100347;27;20043;-83
2022/07/26 00:48:17;;;;;;;6.70;3.05;;;;;;;;;;5117591;27;20057;-82
2022/07/26 00:50:43;;;;;;;8.38;3.22;;;;;;;;;;5117239;27;20058;-82
2022/07/26 00:53:09;;;;;;;7.57;2.65;;;;;;;;;;5100118;27;20075;-83
2022/07/26 00:55:35;;;;;;;6.20;2.67;;;;;;;;;;5100489;27;20051;-82
2022/07/26 00:58:01;;;;;;;3.88;2.22;;;;;;;;;;5099802;27;20550;-82
2022/07/26 01:00:28;;;;;;;6.93;3.25;;;18.60;99.90;;;;;;5116858;27;20089;-84
2022/07/26 01:02:54;;;;;;;9.93;2.40;;;;;;;;;;5100497;27;20103;-83
2022/07/26 01:05:22;;;;;;;5.70;2.40;;;18.50;99.90;;;;;;5099821;27;20046;-83
2022/07/26 01:07:48;;;;;;;4.97;2.20;;;18.50;99.90;;;;;;5099792;27;20042;-82
2022/07/26 01:10:14;;;;;;;7.65;2.30;;;;;;;;;;5100103;27;20073;-81
2022/07/26 01:12:42;;;;;;;5.55;2.30;;;18.40;99.90;;;;;;5099882;27;20172;-82
2022/07/26 01:15:09;;;;;;;8.57;2.05;;;18.60;99.90;;;;;;5099788;27;20055;-82
2022/07/26 01:17:36;;;;;;;5.00;2.58;;;;;;;;;;5116921;27;20043;-83
2022/07/26 01:20:03;;;;;;;7.32;3.03;;;18.40;99.90;;;;;;5117026;27;20047;-81
2022/07/26 01:22:29;;;;;;;6.85;2.40;;;;;;;;;;5100874;27;20039;-87
2022/07/26 01:24:55;;;;;;;7.10;2.92;;;;;;;;;;5100362;27;20498;-87
2022/07/26 01:27:21;;;;;;;5.78;2.30;;;;;;;;;;5100910;27;20130;-84
2022/07/26 01:29:48;;;;;;;7.00;3.40;;;;;;;;;;5102381;27;20043;-88
2022/07/26 01:32:14;;;;;;;10.55;2.30;;;;;;;;;;5119485;27;20039;-88
2022/07/26 01:34:40;;;;;;;10.32;3.47;;;;;;;;;;5102062;27;20046;-86
2022/07/26 01:37:07;;;;;;;4.35;1.90;;;;;;;;;;5101299;27;20043;-86
2022/07/26 01:39:33;;;;;;;4.47;1.88;;;;;;;;;;5100615;27;20051;-86
2022/07/26 01:41:59;;;;;;;7.60;2.20;;;;;;;;;;5100298;27;20109;-85
2022/07/26 01:44:25;;;;;;;6.07;1.98;;;;;;;;;;5100678;27;20055;-85
2022/07/26 01:46:51;;;;;;;5.68;3.42;;;;;;;;;;5117349;27;20040;-82
2022/07/26 01:49:17;;;;;;;4.40;2.38;;;;;;;;;;5100491;27;20039;-86
2022/07/26 01:51:43;;;;;;;3.83;2.15;;;;;;;;;;5117551;27;20312;-86
2022/07/26 01:54:09;;;;;;;5.65;2.47;;;;;;;;;;5117154;27;20467;-86
2022/07/26 01:56:35;;;;;;;5.65;2.30;;;;;;;;;;5099816;27;20078;-87
2022/07/26 01:59:01;;;;;;;6.18;3.08;;;;;;;;;;5116427;27;20399;-85
2022/07/26 02:01:27;;;;;;;10.25;2.65;;;;;;;;;;5115937;27;20088;-87
2022/07/26 02:03:53;;;;;;;9.80;2.22;;;;;;;;;;5098658;27;20039;-81
2022/07/26 02:06:19;;;;;;;4.93;2.30;;;;;;;;;;5098651;27;20086;-87
2022/07/26 02:08:45;;;;;;;19.02;3.38;;;;;;;;;;5115665;27;20044;-84
2022/07/26 02:11:11;;;;;;;6.70;2.78;;;;;;;;;;5115596;27;20099;-84
2022/07/26 02:13:39;;;;;;;7.75;2.80;;;18.30;99.90;;;;;;5098883;27;20125;-84
2022/07/26 02:16:08;;;;;;;4.93;2.38;;;18.20;99.90;;;;;;5098730;27;20471;-85
2022/07/26 02:18:36;;;;;;;5.10;2.35;;;;;;;;;;5116061;27;20035;-84
2022/07/26 02:21:03;;;;;;;5.43;2.25;;;18.00;99.90;;;;;;5098185;27;20050;-85
2022/07/26 02:23:30;;;;;;;2.97;1.80;;;17.70;99.90;;;;;;5098582;27;20478;-83
2022/07/26 02:25:56;;;;;;;4.25;1.90;;;;;;;;;;5099049;27;20039;-84
2022/07/26 02:28:22;;;;;;;4.70;2.75;;;;;;;;;;5098780;27;20047;-83
2022/07/26 02:30:49;;;;;;;5.13;2.38;;;17.60;99.90;;;;;;5098175;27;20461;-83
2022/07/26 02:33:16;;;;;;;3.17;2.08;;;17.60;99.90;;;;;;5115162;27;20043;-83
2022/07/26 02:35:42;;;;;;;7.47;2.80;;;;;;;;;;5098379;27;20054;-82
2022/07/26 02:38:10;;;;;;;12.45;2.83;;;17.60;99.90;;;;;;5098264;27;20047;-85
2022/07/26 02:40:38;;;;;;;16.30;4.28;;;17.50;99.90;;;;;;5098104;27;20231;-82
2022/07/26 02:43:05;;;;;;;6.68;2.67;;;17.20;99.90;;;;;;5098529;27;20420;-82
2022/07/26 02:45:31;;;;;;;9.52;2.33;;;;;;;;;;5098120;27;20130;-82
2022/07/26 02:47:57;;;;;;;6.32;2.30;;;;;;;;;;5097695;27;20053;-82
2022/07/26 02:50:25;;;;;;;11.15;2.83;;;17.40;99.90;;;;;;5097876;27;20043;-82
2022/07/26 02:52:51;;;;;;;8.38;3.38;;;;;;;;;;5115105;27;20050;-82
2022/07/26 02:55:24;;;;;;;16.15;2.95;;;17.50;99.90;;;;;;5114418;27;20077;-83
2022/07/26 02:57:51;;;;;;;8.70;2.50;;;;;;;;;;5115269;27;20410;-81
2022/07/26 03:00:19;;;;;;;9.55;2.28;;;17.20;99.90;;;;;;5115106;27;20035;-82
2022/07/26 03:02:47;;;;;;;5.65;1.95;;;;;;;;;;5097650;27;20043;-82
2022/07/26 03:05:14;;;;;;;9.10;2.30;;;;;;;;;;5097265;27;20492;-83
2022/07/26 03:07:40;;;;;;;9.35;3.10;;;;;;;;;;5097561;27;20167;-84
2022/07/26 03:10:06;;;;;;;5.18;1.30;;;;;;;;;;5097770;27;20043;-81
2022/07/26 03:12:32;;;;;;;6.75;1.58;;;;;;;;;;5097493;27;20040;-82
2022/07/26 03:14:58;;;;;;;5.55;2.10;;;;;;;;;;5114400;27;20567;-82
2022/07/26 03:17:24;;;;;;;5.07;1.70;;;;;;;;;;5097267;27;20084;-81
2022/07/26 03:19:50;;;;;;;6.13;1.48;;;;;;;;;;5114462;27;20126;-81
2022/07/26 03:22:17;;;;;;;8.32;1.60;;;;;;;;;;5097232;27;20083;-81
2022/07/26 03:24:43;;;;;;;6.95;2.15;;;;;;;;;;5097228;27;20180;-83
2022/07/26 03:27:09;;;;;;;5.50;1.60;;;;;;;;;;5097585;28;20051;-83
2022/07/26 03:29:35;;;;;;;7.15;2.97;;;;;;;;;;5114449;27;20086;-83
2022/07/26 03:32:01;;;;;;;10.80;1.50;;;;;;;;;;5097447;27;20039;-84
2022/07/26 03:34:27;;;;;;;7.15;1.70;;;;;;;;;;5097267;27;20042;-84
2022/07/26 03:36:53;;;;;;;6.10;1.65;;;;;;;;;;5097055;28;20479;-81
2022/07/26 03:39:19;;;;;;;8.30;2.10;;;;;;;;;;5114293;27;20043;-85
2022/07/26 03:41:45;;;;;;;4.20;1.50;;;;;;;;;;5113684;27;20047;-83
2022/07/26 03:44:11;;;;;;;8.68;1.65;;;;;;;;;;5096865;28;20047;-82
2022/07/26 03:46:37;;;;;;;5.57;1.15;;;;;;;;;;5097123;28;20487;-82
2022/07/26 03:49:03;;;;;;;10.05;1.80;;;;;;;;;;5096875;28;20089;-83
2022/07/26 03:51:32;;;;;;;8.00;1.45;;;;;;;;;;5097104;28;20039;-82
2022/07/26 03:53:58;;;;;;;5.18;1.20;;;;;;;;;;5113776;28;20051;-82
2022/07/26 03:56:27;;;;;;;5.40;1.25;;;;;;;;;;5097142;28;20130;-81
2022/07/26 03:58:54;;;;;;;4.22;1.13;;;;;;;;;;5096777;28;20043;-81
2022/07/26 04:01:20;;;;;;;4.38;1.15;;;;;;;;;;5113889;28;20047;-81
2022/07/26 04:03:46;;;;;;;7.63;1.10;;;;;;;;;;5113972;28;20089;-81
2022/07/26 04:06:12;;;;;;;4.03;1.23;;;;;;;;;;5113645;27;20415;-81
2022/07/26 04:08:38;;;;;;;5.68;1.20;;;;;;;;;;5118217;27;20047;-81
2022/07/26 04:11:04;;;;;;;6.07;1.40;;;16.80;99.90;;;;;;5118124;27;20465;-82
2022/07/26 04:13:30;;;;;;;3.30;1.48;;;;;;;;;;5118557;27;20039;-82
2022/07/26 04:15:56;;;;;;;8.55;1.20;;;;;;;;;;5117879;27;20050;-82
2022/07/26 04:18:23;;;;;;;4.78;1.23;;;;;;;;;;5101091;27;20100;-81
2022/07/26 04:20:49;;;;;;;6.68;1.17;;;;;;;;;;5100851;27;20395;-82
2022/07/26 04:23:15;;;;;;;4.30;1.48;;;;;;;;;;5100794;27;20039;-82
2022/07/26 04:25:41;;;;;;;3.05;1.30;;;;;;;;;;5118171;27;20047;-83
2022/07/26 04:28:08;;;;;;;3.67;1.30;;;;;;;;;;5100822;27;20452;-83
2022/07/26 04:30:34;;;;;;;4.95;1.20;;;;;;;;;;5117841;27;20039;-82
2022/07/26 04:33:00;;;;;;;1.98;1.30;;;;;;;;;;5100406;27;20042;-81
2022/07/26 04:35:26;;;;;;;3.17;1.60;;;;;;;;;;5117035;27;20035;-82
2022/07/26 04:37:52;;;;;;;3.58;1.05;;;;;;;;;;5100606;27;20050;-81
2022/07/26 04:40:20;;;;;;;5.38;1.30;;;16.70;99.90;;;;;;5117801;27;20047;-81
2022/07/26 04:42:46;;;;;;;4.68;1.30;;;;;;;;;;5100621;27;20521;-81
2022/07/26 04:45:12;;;;;;;3.05;1.55;;;16.50;99.90;;;;;;5100065;27;20417;-81
2022/07/26 04:47:43;;;;;;;3.97;2.30;;;16.60;99.90;;;;;;5100190;27;20522;-81
2022/07/26 04:50:10;;;;;;;4.50;1.55;;;16.60;99.90;;;;;;5117238;27;20050;-81
2022/07/26 04:52:37;;;;;;;3.33;1.35;;;;;;;;;;5117107;27;20043;-81
2022/07/26 04:55:03;;;;;;;4.20;1.20;;;;;;;;;;5117186;27;20046;-81
2022/07/26 04:57:29;;;;;;;3.00;1.35;;;;;;;;;;5100271;27;20099;-81
2022/07/26 04:59:55;;;;;;;3.58;1.48;;;;;;;;;;5117127;27;20050;-81
2022/07/26 05:02:21;;;;;;;9.35;1.52;;;;;;;;;;5100097;27;20395;-82
2022/07/26 05:04:47;;;;;;;4.80;1.00;;;;;;;;;;5099782;27;20039;-81
2022/07/26 05:07:13;;;;;;;1.40;0.75;;;;;;;;;;5116964;27;20047;-81
2022/07/26 05:09:39;;;;;;;3.97;1.30;;;;;;;;;;5117688;27;20086;-81
2022/07/26 05:12:08;;;;;;;4.28;1.13;;;;;;;;;;5100676;27;20042;-82
2022/07/26 05:14:38;;;;;;;3.05;1.10;;;;;;;;;;5136014;27;20442;-82
2022/07/26 05:17:05;;;;;;;1.75;0.98;;;;;;;;;;5117403;27;20043;-81
2022/07/26 05:19:33;;;;;;;3.95;1.10;;;;;;;;;;5099859;27;20107;-82
2022/07/26 05:21:59;;;;;;;3.28;1.00;;;;;;;;;;5100361;27;20554;-82
2022/07/26 05:24:25;;;;;;;1.13;0.80;;;;;;;;;;5100759;27;20492;-81
2022/07/26 05:26:51;;;;;;;6.18;1.05;;;;;;;;;;5118144;27;20047;-83
2022/07/26 05:29:19;;;;;;;6.70;1.27;;;;;;;;;;5101657;27;20039;-84
2022/07/26 05:31:45;;;;;;;3.45;1.40;;;;;;;;;;5101142;27;20036;-84
2022/07/26 05:34:16;;;;;;;1.95;1.15;;;;;;;;;;5118188;27;20050;-81
2022/07/26 05:36:42;;;;;;;7.60;1.92;;;;;;;;;;5117594;27;20139;-82
2022/07/26 05:39:08;;;;;;;4.82;1.25;;;;;;;;;;5100480;27;20139;-81
2022/07/26 05:41:34;;;;;;;6.97;1.13;;;;;;;;;;5100226;27;20043;-82
2022/07/26 05:44:02;;;;;;;3.33;1.30;;;;;;;;;;5100424;27;20051;-82
2022/07/26 05:46:28;;;;;;;4.53;1.58;;;;;;;;;;5117336;27;20459;-81
2022/07/26 05:48:54;;;;;;;5.53;2.40;;;;;;;;;;5100244;27;20064;-81
2022/07/26 05:51:20;;;;;;;3.85;1.75;;;;;;;;;;5100128;27;20135;-82
2022/07/26 05:53:47;;;;;;;4.78;1.35;;;;;;;;;;5116442;27;20159;-82
2022/07/26 05:56:13;;;;;;;3.70;1.40;;;;;;;;;;5116195;27;20050;-82
2022/07/26 05:58:40;;;;;;;2.83;1.05;;;;;;;;;;5116492;27;20046;-81
2022/07/26 06:01:06;;;;;;;7.57;1.40;;;;;;;;;;5099070;27;20043;-81
2022/07/26 06:03:32;;;;;;;1.98;0.98;;;;;;;;;;5116059;27;20042;-81
2022/07/26 06:05:58;;;;;;;2.85;0.90;;;;;;;;;;5099117;27;20109;-80
2022/07/26 06:08:25;;;;;;;3.20;0.80;;;16.20;99.90;;;;;;5098374;27;20055;-81
2022/07/26 06:10:52;;;;;;;3.28;1.27;;;;;;;;;;5116356;27;20104;-81
2022/07/26 06:13:18;;;;;;;5.28;1.92;;;;;;;;;;5115499;27;20043;-82
2022/07/26 06:15:45;;;;;;;3.95;2.25;;;;;;;;;;5115678;27;20043;-82
2022/07/26 06:18:11;;;;;;;3.22;1.33;;;16.20;99.90;;;;;;5116355;27;20406;-81
2022/07/26 06:20:42;;;;;;;6.03;1.33;;;16.40;99.90;;;;;;5116046;27;20329;-82
2022/07/26 06:23:09;;;;;;;4.97;1.50;;;;;;;;;;5099289;27;20058;-82
2022/07/26 06:25:38;;;;;;;3.50;1.20;;;16.20;99.90;;;;;;5115805;27;20398;-80
2022/07/26 06:28:07;;;;;;;3.17;1.17;;;16.40;99.90;;;;;;5099013;27;20039;-81
2022/07/26 06:30:34;;;;;;;7.05;1.20;;;16.30;99.90;;;;;;5097914;27;20084;-84
2022/07/26 06:33:00;;;;;;;1.98;1.05;;;;;;;;;;5098834;27;20039;-83
2022/07/26 06:35:29;;;;;;;7.40;1.55;;;;;;;;;;5098971;27;20047;-84
2022/07/26 06:37:57;;;;;;;3.45;1.67;;;16.60;99.90;;;;;;5098624;27;20542;-83
2022/07/26 06:40:23;;;;;;;4.95;1.30;;;;;;;;;;5098424;27;20058;-81
2022/07/26 06:42:49;;;;;;;2.40;1.02;;;;;;;;;;5115610;27;20051;-83
2022/07/26 06:45:15;;;;;;;4.00;1.10;;;;;;;;;;5081397;27;20046;-83
2022/07/26 06:47:42;;;;;;;4.82;1.60;;;16.60;99.90;;;;;;5115248;27;20373;-83
2022/07/26 06:50:08;;;;;;;5.88;1.45;;;;;;;;;;5098254;27;20052;-83
2022/07/26 06:52:36;;;;;;;3.97;1.48;;;;;;;;;;5098045;27;20046;-83
2022/07/26 06:55:03;;;;;;;3.75;0.93;;;16.60;99.90;;;;;;5115278;27;20053;-83
2022/07/26 06:57:29;;;;;;;7.43;1.27;;;;;;;;;;5098265;27;20427;-82
2022/07/26 06:59:55;;;;;;;5.18;1.40;;;;;;;;;;5081550;27;20047;-82
2022/07/26 07:02:22;;;;;;;5.53;1.00;;;;;;;;;;5097933;27;20038;-82
2022/07/26 07:04:48;;;;;;;7.00;1.40;;;;;;;;;;5133188;27;20039;-82
2022/07/26 07:07:14;;;;;;;3.88;1.23;;;;;;;;;;5115292;27;20039;-80
2022/07/26 07:09:40;;;;;;;3.30;1.15;;;;;;;;;;5115174;27;20376;-82
2022/07/26 07:12:07;;;;;;;3.25;1.13;;;;;;;;;;5115186;27;20043;-81
2022/07/26 07:14:33;;;;;;;2.45;1.10;;;;;;;;;;5115412;27;20520;-81
2022/07/26 07:16:59;;;;;;;2.88;1.50;;;;;;;;;;5097994;27;20055;-81
2022/07/26 07:19:26;;;;;;;1.73;1.02;;;;;;;;;;5114915;27;20081;-80
2022/07/26 07:21:52;;;;;;;11.00;1.50;;;;;;;;;;5115134;27;20597;-81
2022/07/26 07:24:19;;;;;;;3.95;1.88;;;;;;;;;;5114832;27;20511;-81
2022/07/26 07:26:45;;;;;;;4.68;1.23;;;;;;;;;;5133457;27;20066;-83
2022/07/26 07:29:16;;;;;;;5.72;1.65;;;;;;;;;;5114803;27;20054;-82
2022/07/26 07:31:44;;;;;;;8.45;1.85;;;;;;;;;;5098022;27;20039;-81
2022/07/26 07:34:10;;;;;;;3.50;1.45;;;;;;;;;;5133528;27;20564;-82
2022/07/26 07:36:36;;;;;;;4.13;1.33;;;;;;;;;;5133496;27;20045;-79
2022/07/26 07:39:02;;;;;;;4.22;1.50;;;;;;;;;;5114768;27;20074;-82
2022/07/26 07:41:28;;;;;;;4.78;1.30;;;17.10;99.90;;;;;;5097159;28;20047;-81
2022/07/26 07:43:54;;;;;;;7.93;2.00;;;;;;;;;;5097685;27;20479;-80
2022/07/26 07:46:20;;;;;;;7.28;1.60;;;;;;;;;;5114655;28;20531;-81
2022/07/26 07:48:46;;;;;;;5.38;1.20;;;;;;;;;;5114255;28;20035;-81
2022/07/26 07:51:13;;;;;;;4.60;1.55;;;;;;;;;;5097839;28;20166;-81
2022/07/26 07:53:39;;;;;;;5.03;2.20;;;;;;;;;;5114881;28;20051;-81
2022/07/26 07:56:05;;;;;;;5.82;1.63;;;;;;;;;;5097098;28;20140;-81
2022/07/26 07:58:31;;;;;;;8.25;1.58;;;;;;;;;;5114094;28;20047;-82
2022/07/26 08:00:57;;;;;;;3.70;1.65;;;;;;;;;;5114350;28;20043;-82
2022/07/26 08:03:23;;;;;;;9.57;1.40;;;;;;;;;;5114255;28;20051;-81
2022/07/26 08:05:49;;;;;;;6.13;1.35;;;;;;;;;;5097422;28;20407;-81
2022/07/26 08:08:16;;;;;;;10.30;1.77;;;;;;;;;;5113909;28;20488;-82
2022/07/26 08:10:42;;;;;;;6.93;1.42;;;;;;;;;;5114565;28;20505;-80
2022/07/26 08:13:12;;;;;;;6.07;1.80;;;;;;;;;;5097464;28;20031;-82
2022/07/26 08:15:38;;;;;;;4.15;1.45;;;;;;;;;;5113911;28;20043;-82
2022/07/26 08:18:04;;;;;;;5.22;1.30;;;;;;;;;;5097006;28;20089;-82
2022/07/26 08:20:30;;;;;;;4.05;1.67;;;;;;;;;;5114466;28;20118;-82
2022/07/26 08:22:56;;;;;;;5.40;2.00;;;;;;;;;;5097485;28;20041;-81
2022/07/26 08:25:23;;;;;;;5.68;1.58;;;;;;;;;;5131852;28;20496;-81
2022/07/26 08:27:49;;;;;;;3.90;1.48;;;;;;;;;;5113810;28;20043;-81
2022/07/26 08:30:15;;;;;;;3.72;1.30;;;;;;;;;;5097094;28;20050;-82
2022/07/26 08:32:42;;;;;;;6.18;1.70;;;;;;;;;;5097176;28;20044;-82
2022/07/26 08:35:08;;;;;;;6.07;1.55;;;;;;;;;;5080548;28;20050;-82
2022/07/26 08:37:34;;;;;;;4.85;1.55;;;;;;;;;;5132676;28;20122;-82
2022/07/26 08:40:00;;;;;;;10.40;2.63;;;;;;;;;;5113713;28;20054;-84
2022/07/26 08:42:27;;;;;;;10.20;1.98;;;;;;;;;;5114035;28;20415;-82
2022/07/26 08:44:55;;;;;;;9.65;2.00;;;;;;;;;;5132113;28;20130;-83
2022/07/26 08:47:22;;;;;;;9.50;2.05;;;;;;;;;;5113847;28;20040;-85
2022/07/26 08:49:48;;;;;;;9.93;2.40;;;;;;;;;;5096854;28;20046;-82
2022/07/26 08:52:15;;;;;;;8.48;2.67;;;17.10;99.90;;;;;;5132085;28;20103;-83
2022/07/26 08:54:44;;;;;;;8.07;3.03;;;17.20;99.90;;;;;;5100159;27;20130;-85
2022/07/26 08:57:10;;;;;;;12.75;2.90;;;;;;;;;;5119433;27;20505;-84
2022/07/26 08:59:36;;;;;;;9.25;3.10;;;;;;;;;;5118077;27;20065;-83
2022/07/26 09:02:04;;;;;;;10.63;3.45;;;;;;;;;;5117346;27;20486;-84
2022/07/26 09:04:39;;;;;;;19.23;3.35;;;17.20;99.90;;;;;;5118400;27;20099;-82
2022/07/26 09:07:10;;;;;;;14.80;3.42;;;17.30;99.90;;;;;;5119324;27;20129;-82
2022/07/26 09:09:39;;;;;;;10.07;3.65;;;17.10;99.90;;;;;;5102019;27;20395;-81
2022/07/26 09:12:18;;;;;;;20.00;4.60;;;;;;;;;;5117546;27;20085;-82
2022/07/26 09:14:48;;;;;;;12.27;2.78;;;;;;;;;;5099758;27;20054;-81
2022/07/26 09:17:15;;;;;;;17.60;3.80;;;17.10;99.90;;;;;;5100277;27;20044;-82
2022/07/26 09:19:41;;;;;;;16.83;3.22;;;;;;;;;;5117174;27;20046;-81
2022/07/26 09:22:10;;;;;;;9.25;3.50;;;17.00;99.90;;;;;;5117071;27;20078;-82
2022/07/26 09:24:37;;;;;;;10.05;2.40;;;17.30;99.90;;;;;;5099914;27;20165;-82
2022/07/26 09:27:05;;;;;;;10.35;2.50;;;17.30;99.90;;;;;;5100382;27;20089;-81
2022/07/26 09:29:41;;;;;;;8.65;2.20;;;17.40;99.90;;;;;;5135138;27;20043;-83
2022/07/26 09:32:17;;;;;;;17.20;3.92;;;17.40;99.90;;;;;;5116373;27;20035;-83
2022/07/26 09:34:51;;;;;;;12.60;2.63;;;17.50;99.90;;;;;;5135580;27;20058;-85
2022/07/26 09:37:17;;;;;;;9.73;3.35;;;;;;;;;;5135531;27;20118;-82
2022/07/26 09:39:55;;;;;;;8.18;2.55;;;;;;;;;;5117062;27;20050;-81
2022/07/26 09:42:22;;;;;;;7.53;2.30;;;;;;;;;;5099858;27;20103;-81
2022/07/26 09:44:48;;;;;;;10.52;2.20;;;;;;;;;;5100085;27;20147;-81
2022/07/26 09:47:14;;;;;;;5.53;1.95;;;;;;;;;;5135441;27;20039;-82
2022/07/26 09:49:41;;;;;;;12.18;2.50;;;;;;;;;;5135291;27;20085;-81
2022/07/26 09:52:20;;;;;;;9.05;2.22;;;17.60;99.90;;;;;;5100433;27;20039;-82
2022/07/26 09:54:48;;;;;;;13.48;1.98;;;17.60;99.90;;;;;;5135468;27;20175;-82
2022/07/26 09:57:18;;;;;;;8.27;1.90;;;17.60;99.90;;;;;;5135366;27;20438;-81
2022/07/26 09:59:45;;;;;;;7.57;2.20;;;17.60;99.90;;;;;;5099316;27;20043;-81
2022/07/26 10:02:12;;;;;;;9.85;2.15;;;17.60;99.90;;;;;;5099133;27;20128;-82
2022/07/26 10:04:40;;;;;;;6.43;1.58;;;17.70;99.90;;;;;;5135182;27;20139;-81
2022/07/26 10:07:07;;;;;;;7.25;1.98;;;;;;;;;;5099817;27;20480;-81
2022/07/26 10:09:47;;;;;;;4.22;1.90;;;17.80;99.90;;;;;;5116343;27;20047;-81
2022/07/26 10:12:15;;;;;;;6.47;1.63;;;17.80;99.90;;;;;;5115852;27;20727;-81
2022/07/26 10:14:46;;;;;;;10.02;2.38;;;17.70;99.90;;;;;;5116448;27;20051;-82
2022/07/26 10:17:28;;;;;;;7.95;2.65;;;;;;;;;;5134683;27;20038;-81
2022/07/26 10:19:58;;;;;;;6.95;1.70;;;17.70;99.90;;;;;;5116674;27;20051;-82
2022/07/26 10:22:24;;;;;;;8.35;2.28;;;;;;;;;;5099538;27;20396;-82
2022/07/26 10:24:51;;;;;;;7.90;1.55;;;17.90;99.90;;;;;;5116344;27;20038;-81
2022/07/26 10:27:50;;;;;;;8.45;1.85;;;18.00;99.90;;;;;;5116344;27;20043;-80
2022/07/26 10:30:17;;;;;;;6.25;1.92;;;;;;;;;;5031385;28;20054;-81
2022/07/26 10:33:06;;;;;;;5.65;1.90;;;18.30;99.90;;;;;;5014260;28;20130;-82
2022/07/26 10:35:39;;;;;;;6.93;1.63;;;18.40;99.90;;;;;;5014614;28;20069;-81
2022/07/26 10:38:05;;;;;;;5.90;1.65;;;;;;;;;;4998060;28;20053;-81
2022/07/26 10:40:31;;;;;;;7.90;2.17;;;18.10;99.90;;;;;;5014492;28;20053;-81
2022/07/26 10:43:14;;;;;;;5.07;1.50;;;18.60;99.90;;;;;;4997955;28;20049;-82
2022/07/26 10:45:41;;;;;;;7.83;1.73;;;18.50;99.90;;;;;;4997838;28;20049;-81
2022/07/26 10:48:11;;;;;;;5.72;1.55;;;18.90;99.90;;;;;;4997725;28;20288;-81
2022/07/26 10:50:38;;;;;;;3.80;1.70;;;;;;;;;;4997733;28;20046;-81
2022/07/26 10:53:04;;;;;;;21.60;2.47;;;19.10;99.90;;;;;;4997261;28;20088;-81
2022/07/26 10:55:56;;;;;;;6.28;1.42;;;18.90;99.90;;;;;;4998189;28;20034;-80
2022/07/26 10:58:24;;;;;;;6.15;1.35;;;18.90;99.90;;;;;;5014575;28;20110;-81
2022/07/26 11:01:02;;;;;;;6.47;1.20;;;19.20;99.90;;;;;;4981737;28;20045;-82
2022/07/26 11:03:38;;;;;;;5.22;1.40;;;19.20;99.90;;;;;;4997276;28;20102;-83
2022/07/26 11:06:15;;;;;;;3.58;1.08;;;19.20;99.90;;;;;;5058501;27;20051;-81
2022/07/26 11:08:43;;;;;;;5.75;1.63;;;19.40;99.90;;;;;;5115252;27;20522;-82
2022/07/26 11:11:09;;;;;;;4.45;1.20;;;;;;;;;;5115343;27;20073;-81
2022/07/26 11:13:36;;;;;;;4.38;1.23;;;19.20;99.90;;;;;;5098048;27;20507;-81
2022/07/26 11:16:06;;;;;;;5.90;1.40;;;19.40;99.90;;;;;;5097745;28;20130;-82
2022/07/26 11:18:36;;;;;;;4.05;1.40;;;19.40;99.90;;;;;;5097747;27;20082;-82
2022/07/26 11:21:16;;;;;;;4.75;1.10;;;19.40;99.90;;;;;;5115507;27;20041;-82
2022/07/26 11:23:47;;;;;;;4.40;1.35;;;19.90;99.90;;;;;;5114711;27;20099;-82
2022/07/26 11:26:13;;;;;;;4.93;1.70;;;;;;;;;;5081259;27;20399;-82
2022/07/26 11:28:57;;;;;;;4.13;1.45;;;19.70;99.90;;;;;;5115194;27;20503;-81
2022/07/26 11:31:36;;;;;;;2.72;1.20;;;19.80;99.90;;;;;;5115162;27;20054;-81
2022/07/26 11:34:03;;;;;;;3.92;1.08;;;19.80;99.90;;;;;;5132768;27;20046;-80
2022/07/26 11:36:39;;;;;;;4.25;1.55;;;19.60;99.90;;;;;;5132998;27;20524;-82
2022/07/26 11:39:14;;;;;;;3.33;1.40;;;19.60;99.90;;;;;;5115393;28;20050;-82
2022/07/26 11:41:41;;;;;;;4.70;1.20;;;19.50;99.90;;;;;;5133011;27;20062;-82
2022/07/26 11:44:18;;;;;;;6.53;1.30;;;19.50;99.90;;;;;;5114705;28;20372;-81
2022/07/26 11:46:47;;;;;;;4.20;1.42;;;;;;;;;;5115129;27;20062;-81
2022/07/26 11:49:18;;;;;;;4.55;1.30;;;19.30;99.90;;;;;;5081424;28;20047;-82
2022/07/26 11:51:58;;;;;;;4.57;1.58;;;19.60;99.90;;;;;;5133161;28;20043;-81
2022/07/26 11:54:29;;;;;;;6.88;1.30;;;19.60;99.90;;;;;;5133216;28;20043;-81
2022/07/26 11:57:00;;;;;;;4.25;1.30;;;19.50;99.90;;;;;;5133412;28;20118;-82
2022/07/26 11:59:31;;;;;;;4.72;1.15;;;19.50;99.90;;;;;;5114803;28;20510;-82
2022/07/26 12:01:58;;;;;;;2.63;1.05;;;19.50;99.90;;;;;;5114690;28;20043;-82
2022/07/26 12:04:24;;;;;;;5.57;1.60;;;;;;;;;;5113878;28;20051;-82
2022/07/26 12:06:51;;;;;;;4.85;1.67;;;19.50;99.90;;;;;;5114307;28;20043;-82
2022/07/26 12:09:28;;;;;;;7.70;2.58;;;19.30;99.90;;;;;;5132547;28;20047;-83
2022/07/26 12:11:55;;;;;;;5.60;1.40;;;;;;;;;;5132596;28;20043;-81
2022/07/26 12:14:27;;;;;;;7.63;1.90;;;19.40;99.90;;;;;;5132792;28;20040;-82
2022/07/26 12:16:54;;;;;;;3.92;1.50;;;;;;;;;;5114076;28;20491;-84
2022/07/26 12:19:20;;;;;;;5.18;1.65;;;;;;;;;;5132788;28;20181;-82
2022/07/26 12:21:48;;;;;;;4.45;1.05;;;19.30;99.90;;;;;;5132229;28;20047;-83
2022/07/26 12:24:34;;;;;;;4.38;1.27;;;19.00;99.90;;;;;;5132501;28;20058;-83
2022/07/26 12:27:12;;;;;;;8.98;1.23;;;19.40;99.90;;;;;;5114577;28;20507;-82
2022/07/26 12:29:39;;;;;;;3.90;1.48;;;19.60;99.90;;;;;;5135227;27;20043;-82
2022/07/26 12:32:08;;;;;;;4.72;1.35;;;19.50;99.90;;;;;;5117673;27;20054;-83
2022/07/26 12:34:36;;;;;;;6.88;1.40;;;19.60;99.90;;;;;;5118203;27;20388;-82
2022/07/26 12:37:13;;;;;;;3.50;1.70;;;19.80;99.90;;;;;;5117300;27;20130;-83
2022/07/26 12:39:40;;;;;;;3.55;1.42;;;19.70;99.90;;;;;;5136759;27;20088;-83
2022/07/26 12:42:23;;;;;;;3.78;1.35;;;19.90;99.90;;;;;;5117992;27;20047;-82
2022/07/26 12:44:49;;;;;;;9.02;1.55;;;;;;;;;;5136493;27;20150;-83
2022/07/26 12:47:15;;;;;;;4.70;1.27;;;;;;;;;;5136765;27;20475;-86
2022/07/26 12:49:45;;;;;;;9.93;1.67;;;;;;;;;;5118267;27;20043;-82
2022/07/26 12:52:11;;;;;;;3.20;1.38;;;;;;;;;;5136100;27;20122;-86
2022/07/26 12:54:37;;;;;;;6.25;1.75;;;;;;;;;;5117740;27;20074;-84
2022/07/26 12:57:04;;;;;;;5.57;1.45;;;;;;;;;;5117780;27;20373;-85
2022/07/26 12:59:30;;;;;;;5.55;1.50;;;;;;;;;;5135869;27;20086;-82
2022/07/26 13:01:56;;;;;;;5.70;1.75;;;;;;;;;;5117813;27;20043;-82
2022/07/26 13:04:22;;;;;;;4.97;1.60;;;;;;;;;;5117563;27;20487;-84
2022/07/26 13:06:48;;;;;;;6.05;1.95;;;;;;;;;;5135826;27;20038;-82
2022/07/26 13:09:15;;;;;;;7.63;1.48;;;;;;;;;;5135903;27;20047;-84
2022/07/26 13:11:41;;;;;;;3.85;1.45;;;;;;;;;;5117125;27;20062;-83
2022/07/26 13:14:07;;;;;;;2.25;1.00;;;;;;;;;;5117264;27;20039;-85
2022/07/26 13:16:33;;;;;;;2.40;1.00;;;;;;;;;;5135442;27;20054;-81
2022/07/26 13:18:59;;;;;;;5.90;2.05;;;;;;;;;;5135724;27;20507;-82
2022/07/26 13:21:25;;;;;;;5.88;1.35;;;;;;;;;;5117155;27;20141;-83
2022/07/26 13:23:51;;;;;;;6.95;1.20;;;;;;;;;;5116965;27;20399;-81
2022/07/26 13:26:17;;;;;;;4.07;1.42;;;20.00;99.90;;;;;;5135474;27;20084;-85
2022/07/26 13:28:43;;;;;;;4.95;1.45;;;;;;;;;;5117324;27;20391;-81
2022/07/26 13:31:11;;;;;;;5.55;1.15;;;;;;;;;;5117079;27;20047;-82
2022/07/26 13:33:38;;;;;;;0.98;0.88;;;;;;;;;;5117093;27;20042;-82
2022/07/26 13:36:04;;;;;;;3.33;1.95;;;;;;;;;;5100143;27;20436;-82
2022/07/26 13:38:33;;;;;;;2.28;1.75;;;;;;;;;;5135659;27;20054;-81
2022/07/26 13:41:01;;;;;;;6.10;1.25;;;20.10;99.90;;;;;;5135854;27;20055;-82
2022/07/26 13:43:27;;;;;;;1.58;0.82;;;20.50;99.90;;;;;;5118283;27;20086;-82
2022/07/26 13:45:53;;;;;;;3.88;1.02;;;20.70;99.90;;;;;;5116663;27;20133;-81
2022/07/26 13:48:19;;;;;;;2.80;1.08;;;20.90;99.90;;;;;;5135502;27;20084;-81
2022/07/26 13:50:45;;;;;;;3.85;1.15;;;;;;;;;;5117833;27;20051;-82
2022/07/26 13:53:11;;;;;;;1.75;1.00;;;;;;;;;;5136176;27;20509;-82
2022/07/26 13:55:38;;;;;;;4.85;1.10;;;;;;;;;;5136340;27;20081;-80
2022/07/26 13:58:04;;;;;;;2.83;1.17;;;;;;;;;;5135631;27;20039;-82
2022/07/26 14:00:29;;;;;;;2.97;0.93;;;20.50;99.90;;;;;;5100098;27;20047;-82
2022/07/26 14:02:59;;;;;;;3.85;1.17;;;20.50;99.90;;;;;;5099523;27;20043;-82
2022/07/26 14:05:26;;;;;;;2.15;0.85;;;20.20;99.90;;;;;;5116981;27;20043;-82